Impacts TAF Board INFO
FOR SITUATIONAL AWARENESS. NOT TO BE USED FOR FLIGHT PLANNING PURPOSES.
IDs:

KDCA - Washington/National, VA, US

Issued at 1437 UTC 21 Feb 2018
Updated at 1505 UTC 21 Feb 2018
Potential Impact None Slight Moderate High
Time<<22/16Z 22/17Z 22/18Z 22/19Z 22/20Z 22/21Z 22/22Z 22/23Z 23/00Z 23/01Z 23/02Z 23/03Z 23/04Z
Type PRVL PRVL
VIS 4 4
CIG 10 10
Cover OVC OVC
FltCat MVFR MVFR
WX -RA -DZ BR -RA -DZ BR
WDir 30 30
WSpd 7 7
WGst -- --

Raw TAF
KDCA 211437Z 2115/2218 21011G19KT P6SM SCT050 SCT250
  FM220300 26005KT P6SM VCSH BKN025
  FM220500 33004KT P6SM VCSH BKN025
  FM221200 04007KT 6SM -RADZ BR OVC025
  FM221500 03007KT 4SM -RADZ BR OVC010


METAR Board
Radar Display
Forecast Discussion

FOR SITUATIONAL AWARENESS. NOT TO BE USED FOR FLIGHT PLANNING PURPOSES.